createdAt,value
2018-05-12T00:00:13.329Z,10.77
2018-05-12T00:02:39.532Z,10.27
2018-05-12T00:05:05.721Z,11.27
2018-05-12T00:07:31.908Z,10.90
2018-05-12T00:09:58.128Z,11.07
2018-05-12T00:12:24.326Z,10.73
2018-05-12T00:14:50.533Z,11.40
2018-05-12T00:17:16.743Z,11.67
2018-05-12T00:19:42.918Z,10.90
2018-05-12T00:22:09.853Z,10.17
2018-05-12T00:24:36.091Z,11.27
2018-05-12T00:27:02.313Z,10.47
2018-05-12T00:29:28.500Z,10.10
2018-05-12T00:31:54.680Z,11.00
2018-05-12T00:34:20.847Z,9.83
2018-05-12T00:36:47.040Z,10.37
2018-05-12T00:39:13.204Z,11.20
2018-05-12T00:41:39.424Z,9.83
2018-05-12T00:44:05.699Z,10.93
2018-05-12T00:46:31.900Z,10.57
2018-05-12T00:48:58.960Z,10.27
2018-05-12T00:51:25.943Z,10.43
2018-05-12T00:53:52.131Z,10.87
2018-05-12T00:56:18.341Z,10.73
2018-05-12T00:58:44.562Z,11.47
2018-05-12T01:01:10.730Z,11.43
2018-05-12T01:03:38.414Z,11.07
2018-05-12T01:06:04.596Z,11.77
2018-05-12T01:08:30.798Z,11.40
2018-05-12T01:10:56.987Z,10.93
2018-05-12T01:13:23.163Z,11.07
2018-05-12T01:15:49.362Z,11.43
2018-05-12T01:18:15.535Z,10.47
2018-05-12T01:20:41.786Z,10.50
2018-05-12T01:23:07.974Z,14.47
2018-05-12T01:25:34.174Z,11.37
2018-05-12T01:28:00.378Z,11.90
2018-05-12T01:30:26.619Z,10.33
2018-05-12T01:35:46.063Z,10.97
2018-05-12T01:38:12.246Z,11.17
2018-05-12T01:40:38.416Z,11.23
2018-05-12T01:43:05.323Z,10.43
2018-05-12T01:45:31.505Z,11.13
2018-05-12T01:47:58.467Z,11.33
2018-05-12T01:50:25.004Z,11.27
2018-05-12T01:52:51.259Z,10.83
2018-05-12T01:55:17.465Z,11.37
2018-05-12T01:57:43.658Z,11.43
2018-05-12T02:00:09.890Z,10.67
2018-05-12T02:02:36.144Z,10.27
2018-05-12T02:05:02.312Z,10.27
2018-05-12T02:07:28.506Z,10.03
2018-05-12T02:09:54.707Z,11.33
2018-05-12T02:12:20.882Z,10.93
2018-05-12T02:14:47.797Z,11.17
2018-05-12T02:17:13.954Z,11.17
2018-05-12T02:19:40.139Z,10.40
2018-05-12T02:22:06.322Z,10.43
2018-05-12T02:24:32.520Z,10.57
2018-05-12T02:26:58.751Z,10.53
2018-05-12T02:29:25.057Z,10.53
2018-05-12T02:31:51.217Z,10.17
2018-05-12T02:34:17.412Z,13.93
2018-05-12T02:36:44.328Z,10.90
2018-05-12T02:39:10.484Z,10.73
2018-05-12T02:41:37.412Z,9.47
2018-05-12T02:44:03.592Z,11.40
2018-05-12T02:46:29.853Z,10.83
2018-05-12T02:48:56.010Z,10.73
2018-05-12T02:51:22.201Z,11.73
2018-05-12T02:53:48.377Z,11.23
2018-05-12T02:56:14.624Z,10.93
2018-05-12T02:58:40.774Z,11.20
2018-05-12T03:01:07.718Z,10.50
2018-05-12T03:03:34.639Z,10.63
2018-05-12T03:06:01.616Z,10.90
2018-05-12T03:08:27.783Z,11.27
2018-05-12T03:10:53.989Z,10.63
2018-05-12T03:13:20.183Z,11.03
2018-05-12T03:15:46.415Z,10.53
2018-05-12T03:18:12.646Z,12.40
2018-05-12T03:20:38.826Z,10.53
2018-05-12T03:23:05.039Z,11.30
2018-05-12T03:25:31.235Z,10.43
2018-05-12T03:27:57.381Z,11.23
2018-05-12T03:30:23.583Z,11.77
2018-05-12T03:32:49.779Z,10.97
2018-05-12T03:35:15.958Z,11.20
2018-05-12T03:37:42.155Z,10.80
2018-05-12T03:40:08.310Z,11.83
2018-05-12T03:42:34.471Z,10.40
2018-05-12T03:45:00.642Z,11.40
2018-05-12T03:47:26.787Z,11.47
2018-05-12T03:49:53.686Z,11.60
2018-05-12T03:52:19.839Z,11.23
2018-05-12T03:54:45.994Z,10.37
2018-05-12T03:57:12.155Z,10.57
2018-05-12T03:59:38.316Z,11.53
2018-05-12T04:02:04.483Z,11.03
2018-05-12T04:04:49.170Z,12.50
2018-05-12T04:07:33.706Z,11.30
2018-05-12T04:10:18.268Z,11.80
2018-05-12T04:12:44.456Z,11.87
2018-05-12T04:15:10.619Z,10.67
2018-05-12T04:17:37.105Z,10.97
2018-05-12T04:20:03.318Z,10.90
2018-05-12T04:22:29.515Z,12.73
2018-05-12T04:24:55.710Z,11.30
2018-05-12T04:27:21.891Z,12.07
2018-05-12T04:29:48.060Z,11.37
2018-05-12T04:32:14.210Z,12.67
2018-05-12T04:34:40.419Z,11.30
2018-05-12T04:37:06.571Z,11.97
2018-05-12T04:39:32.744Z,11.00
2018-05-12T04:41:58.941Z,11.20
2018-05-12T04:44:25.141Z,12.63
2018-05-12T04:46:51.313Z,11.20
2018-05-12T04:49:17.486Z,11.33
2018-05-12T04:51:43.687Z,11.60
2018-05-12T04:54:09.865Z,11.63
2018-05-12T04:56:36.022Z,11.93
2018-05-12T04:59:02.243Z,10.00
2018-05-12T05:01:28.418Z,11.00
2018-05-12T05:03:55.242Z,11.20
2018-05-12T05:06:21.721Z,11.60
2018-05-12T05:08:47.984Z,11.57
2018-05-12T05:11:14.180Z,10.93
2018-05-12T05:13:40.400Z,12.37
2018-05-12T05:16:07.344Z,10.93
2018-05-12T05:18:34.401Z,10.83
2018-05-12T05:21:01.359Z,10.67
2018-05-12T05:23:27.522Z,11.27
2018-05-12T05:25:53.895Z,10.77
2018-05-12T05:28:20.144Z,10.67
2018-05-12T05:30:46.334Z,11.57
2018-05-12T05:33:13.291Z,10.63
2018-05-12T05:35:39.464Z,10.63
2018-05-12T05:38:05.702Z,13.17
2018-05-12T05:40:31.912Z,11.23
2018-05-12T05:42:58.172Z,13.10
2018-05-12T05:45:24.412Z,10.60
2018-05-12T05:47:50.735Z,12.53
2018-05-12T05:50:17.775Z,10.90
2018-05-12T05:52:43.861Z,11.07
2018-05-12T05:55:10.784Z,11.43
2018-05-12T05:57:37.011Z,11.83
2018-05-12T06:00:04.043Z,11.17
2018-05-12T06:02:30.289Z,10.67
2018-05-12T06:04:56.623Z,11.20
2018-05-12T06:07:23.556Z,11.30
2018-05-12T06:09:49.794Z,10.57
2018-05-12T06:12:16.005Z,11.07
2018-05-12T06:14:42.286Z,11.50
2018-05-12T06:17:09.230Z,11.17
2018-05-12T06:19:35.402Z,10.73
2018-05-12T06:22:02.406Z,10.93
2018-05-12T06:24:28.792Z,12.03
2018-05-12T06:26:55.036Z,12.27
2018-05-12T06:29:21.222Z,11.57
2018-05-12T06:31:47.390Z,12.87
2018-05-12T06:34:13.580Z,14.13
2018-05-12T06:36:39.775Z,11.73
2018-05-12T06:39:06.023Z,12.27
2018-05-12T06:41:32.196Z,12.03
2018-05-12T06:43:58.369Z,12.43
2018-05-12T06:46:24.538Z,14.63
2018-05-12T06:48:50.779Z,12.50
2018-05-12T06:51:16.951Z,11.97
2018-05-12T06:53:43.106Z,13.40
2018-05-12T06:56:09.994Z,12.90
2018-05-12T06:58:36.182Z,12.67
2018-05-12T07:01:03.112Z,12.93
2018-05-12T07:03:29.279Z,13.03
2018-05-12T07:05:55.462Z,12.97
2018-05-12T07:08:21.720Z,13.30
2018-05-12T07:10:48.605Z,12.93
2018-05-12T07:13:14.777Z,13.27
2018-05-12T07:15:40.935Z,12.40
2018-05-12T07:18:07.906Z,14.40
2018-05-12T07:20:34.083Z,12.60
2018-05-12T07:23:00.255Z,11.13
2018-05-12T07:25:27.165Z,11.67
2018-05-12T07:27:53.335Z,11.63
2018-05-12T07:30:19.527Z,11.20
2018-05-12T07:32:45.694Z,12.27
2018-05-12T07:35:11.867Z,11.10
2018-05-12T07:37:38.048Z,10.80
2018-05-12T07:40:04.243Z,10.63
2018-05-12T07:42:30.419Z,9.80
2018-05-12T07:44:56.590Z,10.87
2018-05-12T07:47:22.782Z,10.10
2018-05-12T07:49:48.989Z,9.67
2018-05-12T07:52:15.170Z,9.37
2018-05-12T07:54:41.344Z,10.27
2018-05-12T07:57:07.540Z,9.37
2018-05-12T07:59:33.730Z,9.60
2018-05-12T08:02:01.424Z,9.33
2018-05-12T08:04:27.656Z,15.37
2018-05-12T08:06:54.566Z,9.53
2018-05-12T08:09:20.733Z,9.33
2018-05-12T08:11:46.952Z,8.40
2018-05-12T08:14:13.130Z,7.97
2018-05-12T08:16:39.339Z,8.93
2018-05-12T08:19:06.331Z,7.80
2018-05-12T08:21:32.531Z,8.40
2018-05-12T08:23:58.737Z,8.83
2018-05-12T08:26:24.933Z,7.80
2018-05-12T08:28:51.139Z,8.73
2018-05-12T08:31:17.327Z,8.70
2018-05-12T08:33:43.530Z,8.43
2018-05-12T08:36:09.769Z,10.10
2018-05-12T08:38:36.863Z,10.17
2018-05-12T08:41:03.024Z,10.63
2018-05-12T08:43:29.203Z,9.83
2018-05-12T08:45:55.402Z,10.60
2018-05-12T08:48:21.671Z,10.03
2018-05-12T08:50:47.820Z,9.47
2018-05-12T08:53:14.005Z,10.30
2018-05-12T08:55:40.229Z,9.27
2018-05-12T08:58:06.391Z,9.37
2018-05-12T09:00:32.574Z,9.40
2018-05-12T09:02:58.754Z,8.90
2018-05-12T09:05:24.956Z,9.17
2018-05-12T09:07:51.132Z,9.47
2018-05-12T09:10:17.317Z,8.27
2018-05-12T09:12:43.495Z,11.53
2018-05-12T09:15:09.728Z,9.53
2018-05-12T09:17:35.920Z,8.33
2018-05-12T09:20:02.132Z,6.93
2018-05-12T09:22:28.328Z,8.73
2018-05-12T09:24:54.484Z,5.83
2018-05-12T09:27:20.638Z,5.67
2018-05-12T09:29:46.808Z,7.70
2018-05-12T09:32:12.991Z,7.03
2018-05-12T09:34:39.910Z,8.77
2018-05-12T09:37:06.098Z,8.10
2018-05-12T09:39:32.295Z,8.03
2018-05-12T09:41:58.468Z,8.80
2018-05-12T09:44:24.681Z,7.50
2018-05-12T09:46:51.076Z,7.10
2018-05-12T09:49:17.240Z,7.50
2018-05-12T09:51:43.446Z,7.50
2018-05-12T09:54:09.666Z,8.18
2018-05-12T09:56:35.879Z,8.90
2018-05-12T09:59:02.101Z,5.72
2018-05-12T10:01:28.294Z,6.53
2018-05-12T10:03:54.487Z,5.97
2018-05-12T10:06:20.706Z,4.57
2018-05-12T10:08:46.898Z,5.53
2018-05-12T10:11:13.090Z,6.10
2018-05-12T10:13:39.261Z,5.68
2018-05-12T10:16:05.443Z,5.10
2018-05-12T10:18:31.649Z,4.90
2018-05-12T10:20:58.611Z,4.72
2018-05-12T10:23:24.886Z,5.30
2018-05-12T10:25:51.142Z,5.85
2018-05-12T10:28:17.387Z,6.32
2018-05-12T10:30:44.388Z,5.35
2018-05-12T10:33:10.625Z,5.68
2018-05-12T10:35:36.802Z,6.32
2018-05-12T10:38:03.054Z,6.28
2018-05-12T10:40:29.251Z,5.72
2018-05-12T10:42:55.477Z,6.05
2018-05-12T10:45:21.813Z,7.03
2018-05-12T10:47:47.916Z,5.87
2018-05-12T10:50:14.075Z,6.85
2018-05-12T10:52:40.244Z,6.93
2018-05-12T10:55:06.434Z,6.20
2018-05-12T10:57:32.609Z,7.95
2018-05-12T10:59:58.792Z,8.07
2018-05-12T11:02:25.732Z,6.72
2018-05-12T11:04:51.894Z,7.07
2018-05-12T11:07:18.065Z,7.40
2018-05-12T11:09:44.277Z,8.65
2018-05-12T11:12:10.443Z,8.30
2018-05-12T11:14:36.663Z,7.43
2018-05-12T11:17:03.601Z,7.53
2018-05-12T11:19:29.829Z,7.37
2018-05-12T11:21:56.027Z,7.60
2018-05-12T11:24:22.185Z,8.40
2018-05-12T11:26:48.379Z,7.43
2018-05-12T11:29:14.588Z,8.40
2018-05-12T11:31:41.504Z,7.40
2018-05-12T11:34:07.676Z,7.57
2018-05-12T11:36:33.850Z,6.97
2018-05-12T11:39:00.037Z,6.15
2018-05-12T11:41:26.218Z,5.87
2018-05-12T11:43:52.366Z,5.50
2018-05-12T11:46:18.505Z,8.05
2018-05-12T11:48:44.671Z,7.57
2018-05-12T11:51:11.563Z,7.18
2018-05-12T11:53:37.748Z,6.22
2018-05-12T11:56:03.950Z,7.00
2018-05-12T11:58:30.133Z,6.20
2018-05-12T12:00:56.303Z,6.28
2018-05-12T12:03:22.462Z,7.15
2018-05-12T12:05:48.631Z,6.80
2018-05-12T12:08:14.842Z,7.00
2018-05-12T12:10:41.114Z,5.87
2018-05-12T12:13:07.287Z,8.30
2018-05-12T12:15:33.446Z,8.18
2018-05-12T12:17:59.660Z,8.68
2018-05-12T12:20:25.920Z,10.32
2018-05-12T12:22:52.191Z,9.48
2018-05-12T12:25:18.387Z,9.35
2018-05-12T12:27:44.560Z,9.90
2018-05-12T12:30:10.764Z,8.82
2018-05-12T12:32:36.942Z,8.10
2018-05-12T12:35:03.107Z,7.57
2018-05-12T12:37:29.360Z,8.27
2018-05-12T12:39:55.568Z,8.27
2018-05-12T12:42:22.492Z,7.15
2018-05-12T12:44:48.727Z,8.30
2018-05-12T12:47:14.943Z,7.50
2018-05-12T12:49:41.187Z,7.57
2018-05-12T12:52:07.387Z,8.02
2018-05-12T12:54:33.634Z,8.15
2018-05-12T12:56:59.790Z,9.65
2018-05-12T12:59:26.067Z,11.40
2018-05-12T13:06:27.083Z,8.57
2018-05-12T13:08:53.242Z,8.27
2018-05-12T13:11:19.414Z,7.40
2018-05-12T13:13:45.650Z,9.88
2018-05-12T13:16:11.847Z,8.88
2018-05-12T13:18:38.075Z,7.85
2018-05-12T13:21:04.315Z,7.05
2018-05-12T13:23:30.486Z,7.35
2018-05-12T13:25:56.716Z,8.02
2018-05-12T13:28:23.637Z,6.43
2018-05-12T13:30:49.905Z,7.55
2018-05-12T13:33:16.160Z,7.93
2018-05-12T13:35:42.395Z,8.32
2018-05-12T13:38:08.679Z,8.10
2018-05-12T13:40:35.020Z,7.87
2018-05-12T13:43:01.238Z,6.80
2018-05-12T13:45:27.434Z,8.73
2018-05-12T13:47:53.601Z,8.02
2018-05-12T13:50:19.746Z,8.95
2018-05-12T13:52:45.974Z,8.32
2018-05-12T13:55:12.209Z,6.80
2018-05-12T13:57:38.455Z,6.95
2018-05-12T14:00:04.685Z,7.57
2018-05-12T14:02:30.866Z,8.38
2018-05-12T14:04:57.035Z,8.88
2018-05-12T14:07:23.305Z,7.93
2018-05-12T14:09:49.399Z,8.70
2018-05-12T14:12:15.558Z,6.05
2018-05-12T14:14:41.823Z,6.20
2018-05-12T14:17:08.003Z,6.40
2018-05-12T14:19:34.194Z,6.62
2018-05-12T14:22:00.366Z,6.62
2018-05-12T14:24:26.535Z,7.22
2018-05-12T14:26:52.761Z,6.00
2018-05-12T14:29:19.946Z,6.20
2018-05-12T14:31:46.099Z,6.85
2018-05-12T14:34:12.333Z,5.87
2018-05-12T14:36:38.521Z,5.70
2018-05-12T14:39:04.778Z,6.10
2018-05-12T14:41:30.941Z,7.68
2018-05-12T14:43:57.133Z,8.80
2018-05-12T14:46:23.283Z,5.20
2018-05-12T14:48:49.488Z,5.40
2018-05-12T14:51:15.654Z,5.00
2018-05-12T14:53:41.854Z,5.90
2018-05-12T14:56:08.792Z,5.72
2018-05-12T14:58:34.975Z,6.12
2018-05-12T15:01:01.142Z,6.80
2018-05-12T15:03:27.322Z,4.87
2018-05-12T15:05:53.499Z,4.57
2018-05-12T15:08:19.766Z,4.18
2018-05-12T15:10:45.907Z,4.90
2018-05-12T15:13:12.085Z,5.95
2018-05-12T15:15:38.272Z,5.43
2018-05-12T15:18:05.195Z,6.07
2018-05-12T15:20:31.423Z,8.25
2018-05-12T15:22:57.593Z,7.65
2018-05-12T15:25:24.484Z,8.27
2018-05-12T15:27:50.663Z,7.40
2018-05-12T15:30:17.283Z,7.53
2018-05-12T15:32:44.208Z,5.78
2018-05-12T15:35:10.447Z,7.50
2018-05-12T15:37:36.626Z,5.22
2018-05-12T15:40:02.807Z,6.72
2018-05-12T15:42:30.245Z,6.45
2018-05-12T15:44:56.417Z,6.50
2018-05-12T15:47:22.620Z,6.12
2018-05-12T15:49:48.881Z,6.60
2018-05-12T15:52:15.004Z,6.93
2018-05-12T15:54:44.451Z,5.10
2018-05-12T15:57:10.639Z,8.43
2018-05-12T15:59:36.882Z,7.22
2018-05-12T16:02:03.079Z,4.50
2018-05-12T16:04:29.243Z,4.43
2018-05-12T16:06:55.443Z,4.68
2018-05-12T16:09:21.640Z,5.45
2018-05-12T16:11:47.807Z,4.40
2018-05-12T16:14:13.980Z,4.85
2018-05-12T16:16:40.239Z,9.35
2018-05-12T16:19:06.423Z,7.55
2018-05-12T16:21:32.622Z,9.07
2018-05-12T16:23:58.811Z,5.55
2018-05-12T16:26:25.029Z,5.00
2018-05-12T16:28:51.200Z,6.20
2018-05-12T16:31:17.452Z,5.30
2018-05-12T16:33:43.562Z,6.40
2018-05-12T16:36:09.787Z,8.10
2018-05-12T16:38:35.973Z,8.75
2018-05-12T16:41:02.145Z,7.50
2018-05-12T16:43:28.322Z,7.40
2018-05-12T16:45:54.511Z,7.03
2018-05-12T16:48:20.710Z,7.28
2018-05-12T16:50:46.937Z,6.03
2018-05-12T16:53:13.116Z,6.00
2018-05-12T16:55:39.335Z,6.10
2018-05-12T16:58:05.514Z,6.22
2018-05-12T17:00:31.699Z,6.40
2018-05-12T17:02:57.885Z,6.95
2018-05-12T17:05:24.881Z,7.07
2018-05-12T17:07:51.046Z,6.15
2018-05-12T17:10:17.210Z,6.47
2018-05-12T17:12:44.414Z,6.97
2018-05-12T17:15:10.613Z,8.25
2018-05-12T17:17:36.790Z,7.68
2018-05-12T17:20:03.015Z,5.72
2018-05-12T17:22:29.251Z,6.45
2018-05-12T17:24:55.453Z,7.97
2018-05-12T17:27:21.632Z,7.00
2018-05-12T17:29:47.886Z,6.35
2018-05-12T17:32:14.102Z,6.80
2018-05-12T17:34:40.215Z,6.80
2018-05-12T17:37:06.405Z,7.32
2018-05-12T17:39:32.647Z,6.87
2018-05-12T17:41:58.796Z,7.45
2018-05-12T17:44:25.501Z,9.90
2018-05-12T17:46:51.695Z,10.57
2018-05-12T17:49:18.662Z,12.93
2018-05-12T17:51:44.863Z,12.77
2018-05-12T17:54:11.042Z,10.43
2018-05-12T17:56:37.244Z,9.73
2018-05-12T17:59:03.478Z,18.07
2018-05-12T18:01:29.655Z,9.57
2018-05-12T18:03:56.650Z,11.63
2018-05-12T18:06:22.970Z,10.43
2018-05-12T18:08:49.131Z,10.80
2018-05-12T18:11:15.315Z,8.40
2018-05-12T18:13:41.498Z,9.37
2018-05-12T18:16:07.666Z,9.10
2018-05-12T18:18:34.611Z,8.73
2018-05-12T18:21:00.862Z,10.10
2018-05-12T18:23:27.011Z,7.70
2018-05-12T18:25:53.237Z,7.30
2018-05-12T18:28:19.380Z,8.10
2018-05-12T18:30:45.586Z,8.77
2018-05-12T18:33:11.807Z,8.20
2018-05-12T18:35:37.993Z,7.17
2018-05-12T18:38:04.172Z,7.50
2018-05-12T18:40:30.395Z,7.50
2018-05-12T18:42:56.556Z,9.03
2018-05-12T18:45:22.680Z,7.97
2018-05-12T18:47:48.832Z,8.27
2018-05-12T18:50:15.051Z,8.67
2018-05-12T18:52:41.195Z,7.57
2018-05-12T18:55:08.067Z,11.33
2018-05-12T18:57:34.199Z,23.53
2018-05-12T19:00:00.331Z,9.07
2018-05-12T19:02:26.464Z,14.23
2018-05-12T19:04:52.607Z,17.07
2018-05-12T19:07:18.741Z,11.40
2018-05-12T19:09:44.912Z,14.60
2018-05-12T19:12:11.040Z,11.63
2018-05-12T19:14:37.194Z,14.53
2018-05-12T19:17:03.355Z,9.00
2018-05-12T19:19:29.491Z,9.43
2018-05-12T19:21:55.683Z,9.03
2018-05-12T19:24:21.808Z,15.90
2018-05-12T19:26:47.951Z,15.33
2018-05-12T19:29:14.078Z,9.83
2018-05-12T19:31:40.251Z,10.53
2018-05-12T19:34:06.384Z,9.23
2018-05-12T19:36:32.536Z,9.17
2018-05-12T19:38:58.717Z,9.77
2018-05-12T19:41:25.651Z,11.10
2018-05-12T19:43:51.793Z,11.83
2018-05-12T19:46:18.678Z,9.43
2018-05-12T19:48:44.838Z,11.30
2018-05-12T19:51:10.987Z,9.40
2018-05-12T19:53:37.127Z,9.70
2018-05-12T19:56:03.258Z,9.30
2018-05-12T19:58:29.395Z,10.20
2018-05-12T20:00:55.582Z,10.20
2018-05-12T20:03:21.764Z,13.73
2018-05-12T20:05:47.898Z,12.20
2018-05-12T20:08:14.032Z,13.00
2018-05-12T20:10:40.940Z,13.13
2018-05-12T20:13:07.093Z,10.93
2018-05-12T20:15:33.355Z,12.17
2018-05-12T20:18:00.226Z,11.53
2018-05-12T20:20:26.382Z,11.67
2018-05-12T20:22:52.506Z,11.50
2018-05-12T20:25:18.650Z,11.70
2018-05-12T20:27:44.795Z,13.67
2018-05-12T20:30:10.955Z,12.03
2018-05-12T20:32:37.138Z,10.77
2018-05-12T20:35:03.275Z,11.77
2018-05-12T20:37:29.439Z,12.37
2018-05-12T20:39:55.616Z,12.87
2018-05-12T20:42:22.486Z,11.83
2018-05-12T20:44:49.351Z,11.47
2018-05-12T20:47:15.490Z,11.57
2018-05-12T20:49:41.684Z,12.13
2018-05-12T20:52:07.823Z,11.43
2018-05-12T20:54:34.026Z,13.10
2018-05-12T20:57:00.178Z,12.87
2018-05-12T20:59:26.316Z,12.40
2018-05-12T21:01:52.480Z,12.53
2018-05-12T21:04:18.616Z,14.07
2018-05-12T21:06:44.786Z,13.73
2018-05-12T21:09:11.653Z,12.77
2018-05-12T21:11:38.530Z,13.53
2018-05-12T21:14:04.670Z,12.63
2018-05-12T21:16:30.794Z,11.93
2018-05-12T21:18:56.920Z,12.67
2018-05-12T21:21:23.048Z,11.80
2018-05-12T21:23:49.275Z,12.27
2018-05-12T21:26:15.301Z,13.07
2018-05-12T21:28:41.423Z,14.17
2018-05-12T21:31:07.573Z,13.80
2018-05-12T21:33:33.733Z,16.13
2018-05-12T21:35:59.932Z,14.20
2018-05-12T21:38:26.077Z,12.27
2018-05-12T21:40:52.213Z,11.90
2018-05-12T21:43:18.351Z,11.63
2018-05-12T21:45:44.484Z,11.23
2018-05-12T21:48:10.620Z,11.33
2018-05-12T21:50:36.778Z,11.43
2018-05-12T21:53:03.266Z,11.87
2018-05-12T21:55:29.425Z,12.37
2018-05-12T21:57:55.550Z,11.33
2018-05-12T22:00:21.699Z,11.50
2018-05-12T22:02:48.582Z,12.17
2018-05-12T22:05:14.727Z,11.43
2018-05-12T22:07:40.866Z,12.53
2018-05-12T22:10:07.003Z,11.87
2018-05-12T22:12:33.205Z,11.53
2018-05-12T22:15:00.078Z,12.00
2018-05-12T22:17:26.230Z,11.23
2018-05-12T22:19:52.385Z,11.63
2018-05-12T22:22:18.510Z,11.10
2018-05-12T22:24:44.658Z,11.87
2018-05-12T22:27:10.836Z,11.20
2018-05-12T22:29:36.985Z,12.30
2018-05-12T22:32:03.138Z,13.20
2018-05-12T22:34:29.261Z,12.03
2018-05-12T22:36:55.395Z,11.83
2018-05-12T22:39:21.522Z,12.83
2018-05-12T22:41:47.638Z,12.63
2018-05-12T22:44:13.759Z,12.07
2018-05-12T22:46:39.880Z,12.70
2018-05-12T22:49:05.996Z,12.97
2018-05-12T22:51:32.148Z,13.40
2018-05-12T22:53:58.257Z,12.70
2018-05-12T22:56:24.366Z,13.40
2018-05-12T22:58:50.488Z,13.30
2018-05-12T23:01:16.653Z,12.87
2018-05-12T23:03:42.823Z,14.07
2018-05-12T23:06:08.998Z,14.03
2018-05-12T23:08:35.194Z,13.73
2018-05-12T23:11:01.349Z,14.37
2018-05-12T23:13:28.260Z,16.37
2018-05-12T23:15:54.434Z,14.27
2018-05-12T23:18:21.335Z,14.47
2018-05-12T23:20:47.511Z,15.40
2018-05-12T23:23:14.393Z,15.40
2018-05-12T23:25:40.534Z,15.10
2018-05-12T23:28:06.725Z,16.67
2018-05-12T23:30:32.904Z,16.03
2018-05-12T23:32:59.034Z,16.27
2018-05-12T23:35:25.180Z,15.27
2018-05-12T23:37:51.314Z,15.87
2018-05-12T23:40:17.495Z,15.90
2018-05-12T23:42:43.658Z,16.13
2018-05-12T23:45:09.848Z,15.03
2018-05-12T23:47:35.998Z,16.00
2018-05-12T23:50:02.159Z,15.83
2018-05-12T23:52:28.330Z,17.10
2018-05-12T23:54:54.462Z,16.00
2018-05-12T23:57:20.619Z,16.10
2018-05-12T23:59:47.493Z,16.73
